14TA weather

Dean Ranch Airport
Startzville, Texas, United States

Public forecast

Using degrees Fahrenheit for public forecast. Weather courtesy of forecast.io.

METAR (pilot weather report)

Closest report is Boerne Stage Field, 18.5 nm (34.2 km) SW. Retrieved 2019/07/22 20:35 UTC (0 seconds ago):

K5C1 222035Z AUTO 00000KT 10SM CLR 33/17 A3002 RMK AO1

TAF (pilot weather forecast)

Closest forecast is San Antonio International Airport, 22.2 nm (41.1 km) S. Retrieved 2019/07/22 18:22 UTC (2 hours ago):

TAF KSAT 221720Z 2218/2324 17005KT P6SM SCT250 FM230600 35005KT P6SM VCTS BKN060CB FM231400 01010KT P6SM BKN060